Terminal Aerodrome Forecast
Issued by NWS Sterling, VA

Current Version | Previous Version | Graphics & Text | Print | Product List | Glossary On
Versions: 1 2 3 4 5 6 7 8 9 10 11 12 13 14 15 16 17 18
343
FTUS41 KLWX 240803 AAD
TAFMRB
TAF AMD
KMRB 240803Z 2408/2506 29004KT 3SM BR BKN015 BKN200
      TEMPO 2408/2412 1/4SM FG BKN001
     FM241200 30005KT P6SM FEW070 FEW250
     FM241800 30009KT P6SM FEW200 FEW250
     FM250000 28005KT P6SM FEW200 FEW250=

USA.gov is the U.S. government's official web portal to all federal, state and local government web resources and services.